createdAt,value
2023-05-13T00:04:21.157Z,11.00
2023-05-13T00:14:23.098Z,11.00
2023-05-13T00:24:24.872Z,10.80
2023-05-13T00:34:26.783Z,10.80
2023-05-13T00:44:28.916Z,10.70
2023-05-13T00:54:30.814Z,10.10
2023-05-13T01:04:57.585Z,10.30
2023-05-13T01:15:09.675Z,10.00
2023-05-13T01:25:12.741Z,10.00
2023-05-13T01:35:16.085Z,10.10
2023-05-13T01:45:20.141Z,10.20
2023-05-13T01:55:22.064Z,10.20
2023-05-13T02:05:24.843Z,10.30
2023-05-13T02:15:27.100Z,10.40
2023-05-13T02:25:29.066Z,10.40
2023-05-13T02:35:30.892Z,10.40
2023-05-13T02:45:35.093Z,10.50
2023-05-13T02:55:37.126Z,10.60
2023-05-13T03:05:39.063Z,10.80
2023-05-13T03:15:44.123Z,10.70
2023-05-13T03:25:46.637Z,10.60
2023-05-13T03:35:49.100Z,10.50
2023-05-13T03:45:53.694Z,10.60
2023-05-13T03:55:57.652Z,10.60
2023-05-13T04:05:59.597Z,10.80
2023-05-13T04:16:01.805Z,11.00
2023-05-13T04:26:03.756Z,10.80
2023-05-13T04:36:06.081Z,11.10
2023-05-13T04:46:08.025Z,11.20
2023-05-13T04:56:10.021Z,11.20
2023-05-13T05:06:12.819Z,11.30
2023-05-13T05:16:15.995Z,11.40
2023-05-13T05:26:18.020Z,11.50
2023-05-13T05:36:20.548Z,11.50
2023-05-13T05:46:22.578Z,11.60
2023-05-13T05:56:24.969Z,11.60
2023-05-13T06:06:26.964Z,11.50
2023-05-13T06:16:29.080Z,11.80
2023-05-13T06:26:31.836Z,12.10
2023-05-13T06:36:34.173Z,13.10
2023-05-13T06:46:38.039Z,13.50
2023-05-13T06:56:40.028Z,14.70
2023-05-13T07:06:41.941Z,15.10
2023-05-13T07:16:43.781Z,15.30
2023-05-13T07:26:45.676Z,15.40
2023-05-13T07:36:47.590Z,15.60
2023-05-13T07:46:49.631Z,18.60
2023-05-13T07:56:51.597Z,18.40
2023-05-13T08:06:53.503Z,17.60
2023-05-13T08:16:55.687Z,17.70
2023-05-13T08:26:57.700Z,17.90
2023-05-13T08:36:59.523Z,18.70
2023-05-13T08:47:37.752Z,19.50
2023-05-13T08:57:39.603Z,19.00
2023-05-13T09:07:41.953Z,19.50
2023-05-13T09:17:45.735Z,18.30
2023-05-13T09:27:49.235Z,18.10
2023-05-13T09:37:51.309Z,18.10
2023-05-13T09:47:54.814Z,18.10
2023-05-13T09:57:56.747Z,17.60
2023-05-13T10:08:00.761Z,17.40
2023-05-13T10:18:04.194Z,17.20
2023-05-13T10:28:09.665Z,17.50
2023-05-13T10:38:22.264Z,18.10
2023-05-13T10:48:24.593Z,17.60
2023-05-13T10:58:34.108Z,17.60
2023-05-13T11:08:40.999Z,17.50
2023-05-13T11:18:43.326Z,17.50
2023-05-13T11:28:54.427Z,17.30
2023-05-13T11:39:04.632Z,17.30
2023-05-13T11:49:07.462Z,17.50
2023-05-13T11:59:13.818Z,17.60
2023-05-13T12:09:15.683Z,17.80
2023-05-13T12:19:19.529Z,18.00
2023-05-13T12:29:22.860Z,18.10
2023-05-13T12:39:24.743Z,18.30
2023-05-13T12:49:26.602Z,18.50
2023-05-13T12:59:28.477Z,19.00
2023-05-13T13:09:30.829Z,18.80
2023-05-13T13:19:32.778Z,18.80
2023-05-13T13:29:34.884Z,18.20
2023-05-13T13:39:36.788Z,18.00
2023-05-13T13:49:38.677Z,18.20
2023-05-13T13:59:40.583Z,18.10
2023-05-13T14:09:42.409Z,18.20
2023-05-13T14:19:44.249Z,18.10
2023-05-13T14:29:47.619Z,18.30
2023-05-13T14:39:50.289Z,17.90
2023-05-13T14:49:52.290Z,17.90
2023-05-13T14:59:54.111Z,17.90
2023-05-13T15:09:55.973Z,17.90
2023-05-13T15:19:57.862Z,18.20
2023-05-13T15:29:59.741Z,17.80
2023-05-13T15:40:02.349Z,17.80
2023-05-13T15:50:04.501Z,17.60
2023-05-13T16:00:07.154Z,17.70
2023-05-13T16:10:09.945Z,17.70
2023-05-13T16:20:12.383Z,17.10
2023-05-13T16:30:14.363Z,17.20
2023-05-13T16:40:16.711Z,16.90
2023-05-13T16:50:18.690Z,16.80
2023-05-13T17:00:20.908Z,16.70
2023-05-13T17:10:23.302Z,16.70
2023-05-13T17:20:25.619Z,16.60
2023-05-13T17:30:27.425Z,16.50
2023-05-13T17:40:29.976Z,16.30
2023-05-13T17:50:31.857Z,16.20
2023-05-13T18:00:33.740Z,16.00
2023-05-13T18:10:35.555Z,15.90
2023-05-13T18:20:37.372Z,15.60
2023-05-13T18:30:39.268Z,15.40
2023-05-13T18:40:41.519Z,15.20
2023-05-13T18:50:43.420Z,14.90
2023-05-13T19:00:45.375Z,14.70
2023-05-13T19:10:47.331Z,14.40
2023-05-13T19:20:49.209Z,14.10
2023-05-13T19:30:51.111Z,13.90
2023-05-13T19:40:53.297Z,13.70
2023-05-13T19:50:55.236Z,13.40
2023-05-13T20:00:57.160Z,13.10
2023-05-13T20:10:59.602Z,12.90
2023-05-13T20:21:01.921Z,12.70
2023-05-13T20:31:04.559Z,12.50
2023-05-13T20:41:06.400Z,12.30
2023-05-13T20:51:08.372Z,12.20
2023-05-13T21:01:10.298Z,12.10
2023-05-13T21:11:12.353Z,11.80
2023-05-13T21:21:14.176Z,11.60
2023-05-13T21:31:16.655Z,11.50
2023-05-13T21:41:18.702Z,11.20
2023-05-13T21:51:20.573Z,11.10
2023-05-13T22:01:22.490Z,11.00
2023-05-13T22:11:24.698Z,10.90
2023-05-13T22:21:26.525Z,10.60
2023-05-13T22:31:28.378Z,10.50
2023-05-13T22:41:30.291Z,10.60
2023-05-13T22:51:32.209Z,10.40
2023-05-13T23:01:34.157Z,10.30
2023-05-13T23:11:36.876Z,10.40
2023-05-13T23:21:38.671Z,10.50
2023-05-13T23:31:40.838Z,10.40
2023-05-13T23:41:43.465Z,10.20
2023-05-13T23:51:45.226Z,10.10
